Oscoda, MI (48750)

2:16 PM EDT on August 17, 2017 (GMT -0400)
East Brewster Park | | Change Station
Active Advisory: Beach Hazard Statement

Elev 607 ft 44.45 °N, 83.33 °W | Updated 8 seconds ago

Rain
Rain
69.6 °F
Feels Like 69.6 °F
N
6.7
Wind Variable Wind from SE
Gusts 9.4 mph

Today
High -- | Low -- °F
--% Chance of Precip.
Yesterday
High -- | Low -- °F
Precip. -- in
Pressure 29.78 in
Visibility 7.0 miles
Clouds Overcast 600 ft
Dew Point 69 °F
Humidity 99%
Rainfall 0.32 in
Snow Depth Not available.
6:38 AM 8:34 PM
Waning Crescent, 21% visible
METAR KOSC 171754Z AUTO 17005KT 7SM OVC006 21/20 A2978 RMK AO2 60018 T02100197 10211 20192
Pressure 29.78 in
Visibility 7.0 miles
Clouds Overcast 600 ft
Dew Point 69 °F
Humidity 99%
Rainfall 0.32 in
Snow Depth Not available.
6:38 AM 8:34 PM
Waning Crescent, 21% visible
METAR KOSC 171754Z AUTO 17005KT 7SM OVC006 21/20 A2978 RMK AO2 60018 T02100197 10211 20192

Get Your Daily Forecast Email!

Thanks for signing up!

Be on the lookout for a verification email in your inbox.

You'll start receiving severe weather alerts in your inbox..

×

10-Day Weather Forecast

Almanac

Astronomy

Aug. 17, 2017 Rise Set
Actual Time
Civil Twilight
Nautical Twilight
Astronomical Twilight
Moon
Length of Visible Light
Length of Day
Tomorrow will be .
, % of the Moon is Illuminated

Today's Extremes

State Highs State Lows

Community

WunderPhotos

Category 6

Welcome to Category 6. This is the collective home for Weather Underground's featured writeups by Dr. Jeff Masters (right), Bob Henson (left), Chris Burt, and other regular contributors.

Nearby

Air Quality

  Air Quality AQ Index Pollutant
Not available.

Snow Depth

Station Depth Elevation

Earthquake Activity

City Distance Mag. Time & Date
Minimum magnitude displayed is 2.5.

Coastal Water Temperatures

Place Temperature

Stations

Nearby Weather Stations

Station Location Temp. Windchill Dew Point Humidity Wind Precip. Elev Updated Type
                   

Watches & Warnings

Beach Hazard Statement
Issued: 11:10 AM EDT Aug. 17, 2017 – National Weather Service

... Beach hazards statement remains in effect through late
tonight...

* hazards... strong currents and high waves.

* Timing... today through tonight.

* Location... Lake Huron beaches of northeast lower Michigan as
well as eastern Chippewa and Mackinac County beaches in
eastern Upper Michigan.

Precautionary/preparedness actions...

A high swim risk means life threatening waves and currents are
expected. Stay out of the water and stay away from dangerous
areas like piers and breakwalls.